sensor_id;sensor_type;location;lat;lon;timestamp;pressure;altitude;pressure_sealevel;temperature;humidity
21781;BME280;52576;53.614;9.894;2022-08-11T00:00:42;102081.78;;;17.30;80.34
21781;BME280;52576;53.614;9.894;2022-08-11T00:01:47;102079.31;;;17.29;80.36
21781;BME280;52576;53.614;9.894;2022-08-11T00:02:51;102078.91;;;17.25;80.31
21781;BME280;52576;53.614;9.894;2022-08-11T00:03:56;102078.06;;;17.25;80.34
21781;BME280;52576;53.614;9.894;2022-08-11T00:05:04;102075.56;;;17.23;80.77
21781;BME280;52576;53.614;9.894;2022-08-11T00:06:10;102077.66;;;17.21;80.66
21781;BME280;52576;53.614;9.894;2022-08-11T00:07:15;102075.16;;;17.20;80.41
21781;BME280;52576;53.614;9.894;2022-08-11T00:08:21;102085.19;;;17.19;80.48
21781;BME280;52576;53.614;9.894;2022-08-11T00:09:32;102080.19;;;17.16;80.63
21781;BME280;52576;53.614;9.894;2022-08-11T00:10:40;102085.81;;;17.15;80.40
21781;BME280;52576;53.614;9.894;2022-08-11T00:11:45;102069.78;;;17.13;80.84
21781;BME280;52576;53.614;9.894;2022-08-11T00:12:52;102074.22;;;17.08;80.65
21781;BME280;52576;53.614;9.894;2022-08-11T00:13:55;102082.91;;;17.10;80.84
21781;BME280;52576;53.614;9.894;2022-08-11T00:15:00;102085.84;;;17.08;81.16
21781;BME280;52576;53.614;9.894;2022-08-11T00:16:11;102076.06;;;17.07;81.24
21781;BME280;52576;53.614;9.894;2022-08-11T00:17:15;102079.00;;;17.06;80.91
21781;BME280;52576;53.614;9.894;2022-08-11T00:18:19;102077.31;;;17.05;80.98
21781;BME280;52576;53.614;9.894;2022-08-11T00:19:24;102077.53;;;17.03;81.15
21781;BME280;52576;53.614;9.894;2022-08-11T00:20:47;102076.09;;;17.01;81.54
21781;BME280;52576;53.614;9.894;2022-08-11T00:21:53;102080.69;;;17.00;81.38
21781;BME280;52576;53.614;9.894;2022-08-11T00:23:08;102068.63;;;16.96;81.37
21781;BME280;52576;53.614;9.894;2022-08-11T00:24:12;102075.91;;;16.96;81.50
21781;BME280;52576;53.614;9.894;2022-08-11T00:25:16;102075.06;;;16.95;81.68
21781;BME280;52576;53.614;9.894;2022-08-11T00:26:21;102077.16;;;16.93;81.84
21781;BME280;52576;53.614;9.894;2022-08-11T00:27:36;102081.13;;;16.91;81.79
21781;BME280;52576;53.614;9.894;2022-08-11T00:28:40;102080.28;;;16.90;82.09
21781;BME280;52576;53.614;9.894;2022-08-11T00:29:51;102075.09;;;16.89;82.06
21781;BME280;52576;53.614;9.894;2022-08-11T00:30:55;102080.09;;;16.85;82.07
21781;BME280;52576;53.614;9.894;2022-08-11T00:32:03;102080.09;;;16.85;82.17
21781;BME280;52576;53.614;9.894;2022-08-11T00:33:07;102074.91;;;16.84;82.47
21781;BME280;52576;53.614;9.894;2022-08-11T00:34:11;102079.69;;;16.82;82.26
21781;BME280;52576;53.614;9.894;2022-08-11T00:35:15;102074.50;;;16.80;82.50
21781;BME280;52576;53.614;9.894;2022-08-11T00:36:47;102079.28;;;16.78;82.50
21781;BME280;52576;53.614;9.894;2022-08-11T00:37:53;102080.34;;;16.77;82.41
21781;BME280;52576;53.614;9.894;2022-08-11T00:39:03;102077.84;;;16.76;82.80
21781;BME280;52576;53.614;9.894;2022-08-11T00:40:13;102081.59;;;16.75;82.67
21781;BME280;52576;53.614;9.894;2022-08-11T00:41:28;102079.09;;;16.73;82.95
21781;BME280;52576;53.614;9.894;2022-08-11T00:42:42;102076.59;;;16.72;82.80
21781;BME280;52576;53.614;9.894;2022-08-11T00:43:55;102096.56;;;16.71;82.84
21781;BME280;52576;53.614;9.894;2022-08-11T00:45:10;102074.97;;;16.71;83.11
21781;BME280;52576;53.614;9.894;2022-08-11T00:46:22;102072.47;;;16.69;82.86
21781;BME280;52576;53.614;9.894;2022-08-11T00:47:42;102080.78;;;16.68;82.81
21781;BME280;52576;53.614;9.894;2022-08-11T00:48:59;102074.78;;;16.66;82.94
21781;BME280;52576;53.614;9.894;2022-08-11T00:50:15;102081.19;;;16.65;83.29
21781;BME280;52576;53.614;9.894;2022-08-11T00:51:25;102077.91;;;16.63;83.32
21781;BME280;52576;53.614;9.894;2022-08-11T00:53:23;102081.63;;;16.62;83.33
21781;BME280;52576;53.614;9.894;2022-08-11T00:54:54;102079.34;;;16.59;83.34
21781;BME280;52576;53.614;9.894;2022-08-11T00:56:19;102085.81;;;16.58;83.39
21781;BME280;52576;53.614;9.894;2022-08-11T00:59:20;102090.56;;;16.56;83.51
21781;BME280;52576;53.614;9.894;2022-08-11T01:00:56;102083.72;;;16.53;83.56
21781;BME280;52576;53.614;9.894;2022-08-11T01:02:13;102090.16;;;16.52;83.37
21781;BME280;52576;53.614;9.894;2022-08-11T01:03:31;102082.91;;;16.53;83.76
21781;BME280;52576;53.614;9.894;2022-08-11T01:05:18;102081.22;;;16.52;83.87
21781;BME280;52576;53.614;9.894;2022-08-11T01:06:45;102078.75;;;16.50;83.87
21781;BME280;52576;53.614;9.894;2022-08-11T01:09:30;102076.25;;;16.49;83.78
21781;BME280;52576;53.614;9.894;2022-08-11T01:10:47;102081.03;;;16.47;84.12
21781;BME280;52576;53.614;9.894;2022-08-11T01:12:18;102078.31;;;16.47;83.90
21781;BME280;52576;53.614;9.894;2022-08-11T01:17:34;102074.97;;;16.45;83.98
21781;BME280;52576;53.614;9.894;2022-08-11T01:18:59;102074.16;;;16.44;83.90
21781;BME280;52576;53.614;9.894;2022-08-11T01:20:37;102077.66;;;16.45;83.88
21781;BME280;52576;53.614;9.894;2022-08-11T01:24:21;102077.06;;;16.43;83.69
21781;BME280;52576;53.614;9.894;2022-08-11T01:25:56;102076.44;;;16.41;84.07
21781;BME280;52576;53.614;9.894;2022-08-11T01:29:17;102073.75;;;16.41;84.05
21781;BME280;52576;53.614;9.894;2022-08-11T01:31:13;102083.91;;;16.39;84.30
21781;BME280;52576;53.614;9.894;2022-08-11T01:35:02;102078.94;;;16.36;84.08
21781;BME280;52576;53.614;9.894;2022-08-11T01:36:54;102074.56;;;16.34;84.10
21781;BME280;52576;53.614;9.894;2022-08-11T01:38:24;102067.53;;;16.33;84.46
21781;BME280;52576;53.614;9.894;2022-08-11T01:40:05;102073.13;;;16.32;84.62
21781;BME280;52576;53.614;9.894;2022-08-11T01:41:31;102077.06;;;16.29;84.44
21781;BME280;52576;53.614;9.894;2022-08-11T01:43:02;102080.81;;;16.28;84.61
21781;BME280;52576;53.614;9.894;2022-08-11T01:44:48;102067.94;;;16.30;84.51
21781;BME280;52576;53.614;9.894;2022-08-11T01:46:00;102075.41;;;16.28;84.82
21781;BME280;52576;53.614;9.894;2022-08-11T01:47:15;102073.78;;;16.27;84.79
21781;BME280;52576;53.614;9.894;2022-08-11T01:49:02;102078.53;;;16.25;84.61
21781;BME280;52576;53.614;9.894;2022-08-11T01:50:44;102076.84;;;16.24;85.05
21781;BME280;52576;53.614;9.894;2022-08-11T01:52:14;102074.38;;;16.23;85.24
21781;BME280;52576;53.614;9.894;2022-08-11T01:53:29;102071.03;;;16.21;85.13
21781;BME280;52576;53.614;9.894;2022-08-11T01:54:39;102076.66;;;16.19;85.18
21781;BME280;52576;53.614;9.894;2022-08-11T01:55:51;102071.47;;;16.18;85.20
21781;BME280;52576;53.614;9.894;2022-08-11T01:57:08;102075.44;;;16.15;85.62
21781;BME280;52576;53.614;9.894;2022-08-11T01:58:22;102079.16;;;16.14;85.65
21781;BME280;52576;53.614;9.894;2022-08-11T01:59:47;102075.84;;;16.12;85.71
21781;BME280;52576;53.614;9.894;2022-08-11T02:01:01;102076.03;;;16.11;85.81
21781;BME280;52576;53.614;9.894;2022-08-11T02:02:22;102075.44;;;16.09;85.55
21781;BME280;52576;53.614;9.894;2022-08-11T02:03:55;102070.44;;;16.06;85.89
21781;BME280;52576;53.614;9.894;2022-08-11T02:05:06;102069.63;;;16.05;86.11
21781;BME280;52576;53.614;9.894;2022-08-11T02:06:21;102068.16;;;16.03;85.81
21781;BME280;52576;53.614;9.894;2022-08-11T02:07:55;102072.13;;;16.00;86.06
21781;BME280;52576;53.614;9.894;2022-08-11T02:09:09;102072.13;;;16.00;86.21
21781;BME280;52576;53.614;9.894;2022-08-11T02:10:22;102071.47;;;15.98;86.13
21781;BME280;52576;53.614;9.894;2022-08-11T02:11:57;102066.50;;;15.95;86.18
21781;BME280;52576;53.614;9.894;2022-08-11T02:13:14;102068.56;;;15.93;86.30
21781;BME280;52576;53.614;9.894;2022-08-11T02:14:27;102066.09;;;15.92;86.29
21781;BME280;52576;53.614;9.894;2022-08-11T02:15:35;102067.09;;;15.91;86.84
21781;BME280;52576;53.614;9.894;2022-08-11T02:16:47;102067.31;;;15.89;86.61
21781;BME280;52576;53.614;9.894;2022-08-11T02:17:58;102067.53;;;15.88;86.70
21781;BME280;52576;53.614;9.894;2022-08-11T02:19:10;102065.03;;;15.86;86.83
21781;BME280;52576;53.614;9.894;2022-08-11T02:20:36;102060.69;;;15.85;87.10
21781;BME280;52576;53.614;9.894;2022-08-11T02:22:05;102062.75;;;15.83;87.01
21781;BME280;52576;53.614;9.894;2022-08-11T02:23:32;102062.13;;;15.81;86.79
21781;BME280;52576;53.614;9.894;2022-08-11T02:25:05;102061.28;;;15.81;87.08
21781;BME280;52576;53.614;9.894;2022-08-11T02:26:13;102061.50;;;15.79;87.18
21781;BME280;52576;53.614;9.894;2022-08-11T02:27:22;102056.31;;;15.78;87.27
21781;BME280;52576;53.614;9.894;2022-08-11T02:28:30;102056.53;;;15.76;87.06
21781;BME280;52576;53.614;9.894;2022-08-11T02:29:57;102064.81;;;15.75;86.83
21781;BME280;52576;53.614;9.894;2022-08-11T02:31:08;102056.94;;;15.73;87.38
21781;BME280;52576;53.614;9.894;2022-08-11T02:32:57;102061.69;;;15.71;87.44
21781;BME280;52576;53.614;9.894;2022-08-11T02:34:37;102052.97;;;15.69;87.22
21781;BME280;52576;53.614;9.894;2022-08-11T02:36:06;102055.06;;;15.67;87.09
21781;BME280;52576;53.614;9.894;2022-08-11T02:37:17;102056.31;;;15.65;87.29
21781;BME280;52576;53.614;9.894;2022-08-11T02:38:28;102056.31;;;15.65;87.65
21781;BME280;52576;53.614;9.894;2022-08-11T02:39:41;102055.47;;;15.64;87.40
21781;BME280;52576;53.614;9.894;2022-08-11T02:40:59;102052.16;;;15.62;87.72
21781;BME280;52576;53.614;9.894;2022-08-11T02:42:15;102057.56;;;15.62;87.62
21781;BME280;52576;53.614;9.894;2022-08-11T02:43:49;102056.09;;;15.60;87.69
21781;BME280;52576;53.614;9.894;2022-08-11T02:45:13;102056.28;;;15.58;87.98
21781;BME280;52576;53.614;9.894;2022-08-11T02:46:20;102048.41;;;15.57;87.89
21781;BME280;52576;53.614;9.894;2022-08-11T02:47:33;102052.97;;;15.56;87.93
21781;BME280;52576;53.614;9.894;2022-08-11T02:48:47;102054.03;;;15.55;88.19
21781;BME280;52576;53.614;9.894;2022-08-11T02:50:17;102055.03;;;15.54;87.78
21781;BME280;52576;53.614;9.894;2022-08-11T02:51:28;102061.47;;;15.53;87.98
21781;BME280;52576;53.614;9.894;2022-08-11T02:52:42;102057.94;;;15.53;87.99
21781;BME280;52576;53.614;9.894;2022-08-11T02:53:56;102055.44;;;15.51;88.29
21781;BME280;52576;53.614;9.894;2022-08-11T02:55:26;102052.97;;;15.50;88.38
21781;BME280;52576;53.614;9.894;2022-08-11T02:57:01;102050.47;;;15.48;88.45
21781;BME280;52576;53.614;9.894;2022-08-11T02:58:16;102056.91;;;15.47;88.60
21781;BME280;52576;53.614;9.894;2022-08-11T02:59:36;102052.75;;;15.45;88.19
21781;BME280;52576;53.614;9.894;2022-08-11T03:00:56;102057.94;;;15.46;88.26
21781;BME280;52576;53.614;9.894;2022-08-11T03:02:11;102051.69;;;15.46;88.31
21781;BME280;52576;53.614;9.894;2022-08-11T03:03:22;102058.97;;;15.45;88.40
21781;BME280;52576;53.614;9.894;2022-08-11T03:04:34;102049.22;;;15.44;88.63
21781;BME280;52576;53.614;9.894;2022-08-11T03:05:47;102059.19;;;15.44;88.47
21781;BME280;52576;53.614;9.894;2022-08-11T03:07:00;102051.31;;;15.42;88.53
21781;BME280;52576;53.614;9.894;2022-08-11T03:08:40;102052.31;;;15.41;88.77
21781;BME280;52576;53.614;9.894;2022-08-11T03:09:54;102051.69;;;15.39;88.93
21781;BME280;52576;53.614;9.894;2022-08-11T03:11:05;102049.16;;;15.38;88.75
21781;BME280;52576;53.614;9.894;2022-08-11T03:12:33;102061.63;;;15.39;88.88
21781;BME280;52576;53.614;9.894;2022-08-11T03:14:08;102054.56;;;15.38;88.80
21781;BME280;52576;53.614;9.894;2022-08-11T03:15:31;102059.31;;;15.36;88.84
21781;BME280;52576;53.614;9.894;2022-08-11T03:17:12;102062.22;;;15.34;89.10
21781;BME280;52576;53.614;9.894;2022-08-11T03:18:23;102052.47;;;15.33;89.03
21781;BME280;52576;53.614;9.894;2022-08-11T03:19:35;102056.19;;;15.32;88.87
21781;BME280;52576;53.614;9.894;2022-08-11T03:20:44;102059.94;;;15.31;88.71
21781;BME280;52576;53.614;9.894;2022-08-11T03:21:56;102054.75;;;15.30;89.17
21781;BME280;52576;53.614;9.894;2022-08-11T03:23:08;102064.69;;;15.29;89.02
21781;BME280;52576;53.614;9.894;2022-08-11T03:24:28;102057.66;;;15.28;89.22
21781;BME280;52576;53.614;9.894;2022-08-11T03:25:38;102059.50;;;15.28;89.02
21781;BME280;52576;53.614;9.894;2022-08-11T03:26:55;102055.97;;;15.27;89.27
21781;BME280;52576;53.614;9.894;2022-08-11T03:28:13;102060.75;;;15.25;89.32
21781;BME280;52576;53.614;9.894;2022-08-11T03:29:29;102061.56;;;15.26;89.24
21781;BME280;52576;53.614;9.894;2022-08-11T03:30:41;102061.78;;;15.24;89.17
21781;BME280;52576;53.614;9.894;2022-08-11T03:31:48;102060.97;;;15.24;89.53
21781;BME280;52576;53.614;9.894;2022-08-11T03:33:05;102056.59;;;15.23;89.54
21781;BME280;52576;53.614;9.894;2022-08-11T03:34:29;102057.63;;;15.22;89.38
21781;BME280;52576;53.614;9.894;2022-08-11T03:35:38;102059.47;;;15.21;89.67
21781;BME280;52576;53.614;9.894;2022-08-11T03:37:10;102057.84;;;15.20;89.48
21781;BME280;52576;53.614;9.894;2022-08-11T03:38:47;102059.91;;;15.18;89.36
21781;BME280;52576;53.614;9.894;2022-08-11T03:40:05;102063.59;;;15.17;89.25
21781;BME280;52576;53.614;9.894;2022-08-11T03:41:19;102059.25;;;15.16;89.73
21781;BME280;52576;53.614;9.894;2022-08-11T03:43:11;102056.78;;;15.15;89.47
21781;BME280;52576;53.614;9.894;2022-08-11T03:44:53;102058.63;;;15.14;89.87
21781;BME280;52576;53.614;9.894;2022-08-11T03:46:03;102063.38;;;15.12;90.20
21781;BME280;52576;53.614;9.894;2022-08-11T03:47:36;102058.84;;;15.13;89.71
21781;BME280;52576;53.614;9.894;2022-08-11T03:49:06;102053.66;;;15.11;89.81
21781;BME280;52576;53.614;9.894;2022-08-11T03:50:23;102051.16;;;15.09;89.72
21781;BME280;52576;53.614;9.894;2022-08-11T03:51:31;102052.22;;;15.08;90.08
21781;BME280;52576;53.614;9.894;2022-08-11T03:53:04;102054.06;;;15.08;90.00
21781;BME280;52576;53.614;9.894;2022-08-11T03:54:15;102055.06;;;15.07;90.16
21781;BME280;52576;53.614;9.894;2022-08-11T03:55:29;102062.34;;;15.06;90.32
21781;BME280;52576;53.614;9.894;2022-08-11T03:58:53;102065.25;;;15.05;90.12
21781;BME280;52576;53.614;9.894;2022-08-11T04:02:14;102061.06;;;15.02;90.12
21781;BME280;52576;53.614;9.894;2022-08-11T04:03:44;102059.22;;;15.03;90.41
21781;BME280;52576;53.614;9.894;2022-08-11T04:05:10;102060.22;;;15.02;90.18
21781;BME280;52576;53.614;9.894;2022-08-11T04:08:28;102065.63;;;15.02;90.29
21781;BME280;52576;53.614;9.894;2022-08-11T04:10:06;102060.22;;;15.02;92.03
21781;BME280;52576;53.614;9.894;2022-08-11T04:11:38;102064.19;;;15.06;92.36
21781;BME280;52576;53.614;9.894;2022-08-11T04:13:18;102068.16;;;15.10;91.75
21781;BME280;52576;53.614;9.894;2022-08-11T04:14:48;102066.50;;;15.16;91.23
21781;BME280;52576;53.614;9.894;2022-08-11T04:16:40;102063.22;;;15.20;91.27
21781;BME280;52576;53.614;9.894;2022-08-11T04:18:13;102066.34;;;15.24;91.35
21781;BME280;52576;53.614;9.894;2022-08-11T04:19:51;102055.38;;;15.25;90.95
21781;BME280;52576;53.614;9.894;2022-08-11T04:22:52;102061.41;;;15.34;91.62
21781;BME280;52576;53.614;9.894;2022-08-11T04:24:21;102059.94;;;15.38;90.88
21781;BME280;52576;53.614;9.894;2022-08-11T04:26:11;102065.81;;;15.41;90.73
21781;BME280;52576;53.614;9.894;2022-08-11T04:27:41;102054.38;;;15.46;90.06
21781;BME280;52576;53.614;9.894;2022-08-11T04:29:02;102056.69;;;15.49;90.07
21781;BME280;52576;53.614;9.894;2022-08-11T04:30:15;102053.81;;;15.50;89.96
21781;BME280;52576;53.614;9.894;2022-08-11T04:31:45;102056.91;;;15.54;89.75
21781;BME280;52576;53.614;9.894;2022-08-11T04:35:03;102059.41;;;15.62;89.52
21781;BME280;52576;53.614;9.894;2022-08-11T04:36:28;102059.00;;;15.65;89.32
21781;BME280;52576;53.614;9.894;2022-08-11T04:38:24;102053.81;;;15.70;89.12
21781;BME280;52576;53.614;9.894;2022-08-11T04:39:45;102057.16;;;15.72;88.90
21781;BME280;52576;53.614;9.894;2022-08-11T04:41:19;102062.34;;;15.73;88.94
21781;BME280;52576;53.614;9.894;2022-08-11T04:47:50;102057.78;;;15.80;88.42
21781;BME280;52576;53.614;9.894;2022-08-11T04:49:30;102057.38;;;15.83;88.31
21781;BME280;52576;53.614;9.894;2022-08-11T04:51:22;102056.09;;;15.86;88.37
21781;BME280;52576;53.614;9.894;2022-08-11T04:53:13;102058.19;;;15.90;88.09
21781;BME280;52576;53.614;9.894;2022-08-11T04:54:52;102059.63;;;15.93;87.81
21781;BME280;52576;53.614;9.894;2022-08-11T04:56:22;102055.72;;;15.95;87.68
21781;BME280;52576;53.614;9.894;2022-08-11T04:57:53;102063.59;;;15.97;87.83
21781;BME280;52576;53.614;9.894;2022-08-11T04:59:57;102059.25;;;16.02;87.54
21781;BME280;52576;53.614;9.894;2022-08-11T05:01:26;102055.06;;;16.06;87.45
21781;BME280;52576;53.614;9.894;2022-08-11T05:04:49;102055.91;;;16.13;87.42
21781;BME280;52576;53.614;9.894;2022-08-11T05:06:32;102046.38;;;16.17;86.87
21781;BME280;52576;53.614;9.894;2022-08-11T05:09:35;102059.66;;;16.25;87.25
21781;BME280;52576;53.614;9.894;2022-08-11T05:10:54;102063.56;;;16.29;87.00
21781;BME280;52576;53.614;9.894;2022-08-11T05:12:08;102055.88;;;16.33;86.85
21781;BME280;52576;53.614;9.894;2022-08-11T05:13:26;102057.13;;;16.37;86.84
21781;BME280;52576;53.614;9.894;2022-08-11T05:14:48;102058.34;;;16.41;86.53
21781;BME280;52576;53.614;9.894;2022-08-11T05:16:12;102056.06;;;16.45;86.37
21781;BME280;52576;53.614;9.894;2022-08-11T05:17:38;102066.50;;;16.48;86.16
21781;BME280;52576;53.614;9.894;2022-08-11T05:19:01;102057.97;;;16.51;86.30
21781;BME280;52576;53.614;9.894;2022-08-11T05:20:24;102063.56;;;16.56;86.18
21781;BME280;52576;53.614;9.894;2022-08-11T05:21:51;102066.91;;;16.58;86.26
21781;BME280;52576;53.614;9.894;2022-08-11T05:23:14;102056.69;;;16.60;86.15
21781;BME280;52576;53.614;9.894;2022-08-11T05:24:40;102072.50;;;16.63;85.78
21781;BME280;52576;53.614;9.894;2022-08-11T05:26:02;102066.66;;;16.66;85.87
21781;BME280;52576;53.614;9.894;2022-08-11T05:27:49;102067.88;;;16.70;85.89
21781;BME280;52576;53.614;9.894;2022-08-11T05:29:39;102061.84;;;16.74;85.51
21781;BME280;52576;53.614;9.894;2022-08-11T05:31:03;102056.66;;;16.79;85.64
21781;BME280;52576;53.614;9.894;2022-08-11T05:32:32;102062.47;;;16.83;85.40
21781;BME280;52576;53.614;9.894;2022-08-11T05:34:08;102062.44;;;16.89;85.10
21781;BME280;52576;53.614;9.894;2022-08-11T05:35:33;102058.25;;;16.93;85.40
21781;BME280;52576;53.614;9.894;2022-08-11T05:37:04;102066.75;;;16.97;85.20
21781;BME280;52576;53.614;9.894;2022-08-11T05:38:29;102067.16;;;17.00;84.82
21781;BME280;52576;53.614;9.894;2022-08-11T05:39:54;102059.44;;;17.04;84.89
21781;BME280;52576;53.614;9.894;2022-08-11T05:41:18;102064.44;;;17.07;85.01
21781;BME280;52576;53.614;9.894;2022-08-11T05:42:43;102059.41;;;17.10;84.75
21781;BME280;52576;53.614;9.894;2022-08-11T05:44:09;102060.88;;;17.13;84.89
21781;BME280;52576;53.614;9.894;2022-08-11T05:45:33;102069.38;;;17.16;84.64
21781;BME280;52576;53.614;9.894;2022-08-11T05:47:05;102062.72;;;17.19;84.60
21781;BME280;52576;53.614;9.894;2022-08-11T05:48:32;102065.59;;;17.24;84.38
21781;BME280;52576;53.614;9.894;2022-08-11T05:49:53;102062.00;;;17.30;84.45
21781;BME280;52576;53.614;9.894;2022-08-11T05:51:16;102068.66;;;17.34;84.09
21781;BME280;52576;53.614;9.894;2022-08-11T05:52:38;102069.69;;;17.39;83.98
21781;BME280;52576;53.614;9.894;2022-08-11T05:54:02;102070.09;;;17.43;83.49
21781;BME280;52576;53.614;9.894;2022-08-11T05:55:30;102073.00;;;17.48;83.48
21781;BME280;52576;53.614;9.894;2022-08-11T05:57:04;102068.78;;;17.52;83.04
21781;BME280;52576;53.614;9.894;2022-08-11T05:58:08;102071.06;;;17.55;83.32
21781;BME280;52576;53.614;9.894;2022-08-11T05:59:16;102065.22;;;17.58;82.82
21781;BME280;52576;53.614;9.894;2022-08-11T06:00:20;102069.13;;;17.62;83.12
21781;BME280;52576;53.614;9.894;2022-08-11T06:01:28;102069.53;;;17.66;82.92
21781;BME280;52576;53.614;9.894;2022-08-11T06:02:33;102071.81;;;17.69;82.57
21781;BME280;52576;53.614;9.894;2022-08-11T06:03:42;102069.72;;;17.71;82.71
21781;BME280;52576;53.614;9.894;2022-08-11T06:05:00;102071.75;;;17.75;82.26
21781;BME280;52576;53.614;9.894;2022-08-11T06:06:07;102072.97;;;17.79;82.35
21781;BME280;52576;53.614;9.894;2022-08-11T06:07:11;102071.50;;;17.83;82.05
21781;BME280;52576;53.614;9.894;2022-08-11T06:08:26;102077.91;;;17.89;81.75
21781;BME280;52576;53.614;9.894;2022-08-11T06:09:31;102078.28;;;17.92;81.79
21781;BME280;52576;53.614;9.894;2022-08-11T06:10:37;102072.22;;;17.97;81.70
21781;BME280;52576;53.614;9.894;2022-08-11T06:11:41;102072.59;;;18.00;81.34
21781;BME280;52576;53.614;9.894;2022-08-11T06:12:51;102073.81;;;18.04;81.34
21781;BME280;52576;53.614;9.894;2022-08-11T06:13:56;102072.34;;;18.08;81.17
21781;BME280;52576;53.614;9.894;2022-08-11T06:15:01;102077.94;;;18.13;81.12
21781;BME280;52576;53.614;9.894;2022-08-11T06:16:07;102076.66;;;18.16;81.09
21781;BME280;52576;53.614;9.894;2022-08-11T06:17:11;102075.78;;;18.22;80.85
21781;BME280;52576;53.614;9.894;2022-08-11T06:18:16;102078.66;;;18.27;80.58
21781;BME280;52576;53.614;9.894;2022-08-11T06:19:19;102076.28;;;18.30;80.42
21781;BME280;52576;53.614;9.894;2022-08-11T06:20:25;102065.84;;;18.34;80.29
21781;BME280;52576;53.614;9.894;2022-08-11T06:21:33;102075.19;;;18.38;79.78
21781;BME280;52576;53.614;9.894;2022-08-11T06:22:38;102068.09;;;18.43;80.04
21781;BME280;52576;53.614;9.894;2022-08-11T06:23:43;102070.56;;;18.45;79.85
21781;BME280;52576;53.614;9.894;2022-08-11T06:24:51;102068.84;;;18.50;79.58
21781;BME280;52576;53.614;9.894;2022-08-11T06:25:57;102070.88;;;18.55;79.46
21781;BME280;52576;53.614;9.894;2022-08-11T06:27:02;102079.41;;;18.58;79.32
21781;BME280;52576;53.614;9.894;2022-08-11T06:28:15;102066.22;;;18.62;78.99
21781;BME280;52576;53.614;9.894;2022-08-11T06:29:23;102079.09;;;18.66;78.59
21781;BME280;52576;53.614;9.894;2022-08-11T06:30:47;102061.31;;;18.70;78.57
21781;BME280;52576;53.614;9.894;2022-08-11T06:31:52;102062.53;;;18.74;78.59
21781;BME280;52576;53.614;9.894;2022-08-11T06:32:59;102067.28;;;18.79;78.38
21781;BME280;52576;53.614;9.894;2022-08-11T06:34:11;102065.53;;;18.85;78.24
21781;BME280;52576;53.614;9.894;2022-08-11T06:35:35;102074.91;;;18.89;78.04
21781;BME280;52576;53.614;9.894;2022-08-11T06:36:45;102071.25;;;18.95;77.70
21781;BME280;52576;53.614;9.894;2022-08-11T06:38:01;102071.41;;;19.00;77.50
21781;BME280;52576;53.614;9.894;2022-08-11T06:39:15;102087.00;;;19.04;77.67
21781;BME280;52576;53.614;9.894;2022-08-11T06:40:32;102072.31;;;19.12;77.22
21781;BME280;52576;53.614;9.894;2022-08-11T06:41:43;102074.31;;;19.16;76.78
21781;BME280;52576;53.614;9.894;2022-08-11T06:42:50;102068.22;;;19.21;76.88
21781;BME280;52576;53.614;9.894;2022-08-11T06:44:03;102070.25;;;19.25;76.50
21781;BME280;52576;53.614;9.894;2022-08-11T06:45:15;102065.81;;;19.31;76.48
21781;BME280;52576;53.614;9.894;2022-08-11T06:46:27;102076.78;;;19.36;75.81
21781;BME280;52576;53.614;9.894;2022-08-11T06:47:30;102069.88;;;19.40;75.96
21781;BME280;52576;53.614;9.894;2022-08-11T06:48:38;102073.56;;;19.45;75.42
21781;BME280;52576;53.614;9.894;2022-08-11T06:49:43;102075.56;;;19.50;75.30
21781;BME280;52576;53.614;9.894;2022-08-11T06:51:07;102074.63;;;19.56;75.13
21781;BME280;52576;53.614;9.894;2022-08-11T06:52:14;102071.25;;;19.60;74.97
21781;BME280;52576;53.614;9.894;2022-08-11T06:53:42;102075.75;;;19.66;74.64
21781;BME280;52576;53.614;9.894;2022-08-11T06:55:11;102071.28;;;19.72;74.47
21781;BME280;52576;53.614;9.894;2022-08-11T06:56:38;102065.75;;;19.78;74.23
21781;BME280;52576;53.614;9.894;2022-08-11T06:58:21;102070.81;;;19.86;73.94
21781;BME280;52576;53.614;9.894;2022-08-11T06:59:53;102073.66;;;19.91;71.75
21781;BME280;52576;53.614;9.894;2022-08-11T07:01:14;102072.75;;;19.98;72.38
21781;BME280;52576;53.614;9.894;2022-08-11T07:02:21;102078.53;;;20.01;72.43
21781;BME280;52576;53.614;9.894;2022-08-11T07:03:38;102076.75;;;20.07;72.22
21781;BME280;52576;53.614;9.894;2022-08-11T07:04:46;102072.53;;;20.11;71.97
21781;BME280;52576;53.614;9.894;2022-08-11T07:05:53;102073.50;;;20.16;71.62
21781;BME280;52576;53.614;9.894;2022-08-11T07:07:17;102076.13;;;20.23;71.36
21781;BME280;52576;53.614;9.894;2022-08-11T07:09:05;102080.38;;;20.30;71.36
21781;BME280;52576;53.614;9.894;2022-08-11T07:10:43;102067.50;;;20.37;70.96
21781;BME280;52576;53.614;9.894;2022-08-11T07:12:37;102076.91;;;20.46;70.79
21781;BME280;52576;53.614;9.894;2022-08-11T07:14:01;102073.03;;;20.54;70.46
21781;BME280;52576;53.614;9.894;2022-08-11T07:15:26;102075.03;;;20.58;70.19
21781;BME280;52576;53.614;9.894;2022-08-11T07:17:04;102082.25;;;20.64;70.20
21781;BME280;52576;53.614;9.894;2022-08-11T07:18:19;102070.66;;;20.69;69.84
21781;BME280;52576;53.614;9.894;2022-08-11T07:19:45;102073.25;;;20.75;69.65
21781;BME280;52576;53.614;9.894;2022-08-11T07:21:13;102080.47;;;20.81;69.26
21781;BME280;52576;53.614;9.894;2022-08-11T07:22:56;102065.06;;;20.87;68.91
21781;BME280;52576;53.614;9.894;2022-08-11T07:24:22;102080.19;;;20.94;68.73
21781;BME280;52576;53.614;9.894;2022-08-11T07:26:03;102072.75;;;21.01;68.56
21781;BME280;52576;53.614;9.894;2022-08-11T07:27:29;102078.31;;;21.06;68.33
21781;BME280;52576;53.614;9.894;2022-08-11T07:28:51;102080.28;;;21.11;68.17
21781;BME280;52576;53.614;9.894;2022-08-11T07:30:03;102086.44;;;21.18;67.85
21781;BME280;52576;53.614;9.894;2022-08-11T07:31:08;102075.88;;;21.22;67.53
21781;BME280;52576;53.614;9.894;2022-08-11T07:32:21;102077.88;;;21.26;67.09